createdAt,value
2022-10-05T00:02:35.871Z,53.12
2022-10-05T00:05:40.292Z,52.75
2022-10-05T00:08:43.809Z,52.03
2022-10-05T00:11:46.986Z,51.69
2022-10-05T00:14:50.959Z,51.77
2022-10-05T00:17:53.667Z,52.77
2022-10-05T00:20:58.137Z,53.08
2022-10-05T00:24:01.967Z,53.05
2022-10-05T00:27:12.589Z,52.85
2022-10-05T00:30:16.513Z,52.57
2022-10-05T00:33:19.192Z,52.50
2022-10-05T00:36:23.549Z,52.70
2022-10-05T00:39:26.537Z,52.72
2022-10-05T00:42:37.380Z,53.53
2022-10-05T00:45:45.120Z,52.17
2022-10-05T00:48:51.382Z,52.20
2022-10-05T00:52:00.050Z,53.75
2022-10-05T00:55:08.936Z,52.79
2022-10-05T00:58:17.582Z,53.26
2022-10-05T01:01:25.263Z,52.89
2022-10-05T01:04:30.833Z,52.99
2022-10-05T01:07:40.536Z,53.43
2022-10-05T01:10:46.132Z,52.87
2022-10-05T01:13:52.504Z,52.31
2022-10-05T01:17:00.070Z,52.92
2022-10-05T01:20:16.657Z,53.12
2022-10-05T01:23:52.545Z,51.87
2022-10-05T01:27:03.049Z,53.18
2022-10-05T01:30:09.838Z,52.22
2022-10-05T01:33:16.901Z,52.15
2022-10-05T01:36:23.797Z,54.51
2022-10-05T01:39:31.372Z,53.40
2022-10-05T01:42:38.684Z,53.07
2022-10-05T01:45:49.800Z,52.58
2022-10-05T01:49:03.110Z,53.29
2022-10-05T01:52:12.242Z,52.70
2022-10-05T01:55:19.551Z,53.08
2022-10-05T01:58:29.036Z,51.99
2022-10-05T02:01:36.906Z,52.62
2022-10-05T02:05:01.452Z,52.59
2022-10-05T02:08:08.541Z,51.92
2022-10-05T02:11:12.592Z,52.47
2022-10-05T02:14:17.809Z,53.02
2022-10-05T02:17:25.301Z,52.43
2022-10-05T02:20:29.985Z,52.83
2022-10-05T02:23:34.375Z,52.64
2022-10-05T02:26:38.422Z,53.20
2022-10-05T02:29:43.031Z,52.74
2022-10-05T02:32:50.988Z,52.37
2022-10-05T02:35:54.080Z,53.36
2022-10-05T02:39:01.104Z,53.68
2022-10-05T02:42:09.077Z,52.87
2022-10-05T02:45:16.891Z,54.96
2022-10-05T02:48:25.097Z,52.72
2022-10-05T02:51:29.594Z,52.47
2022-10-05T02:54:45.660Z,52.45
2022-10-05T02:57:50.900Z,52.97
2022-10-05T03:00:58.671Z,53.40
2022-10-05T03:04:07.778Z,53.15
2022-10-05T03:07:15.369Z,53.55
2022-10-05T03:10:23.479Z,54.13
2022-10-05T03:13:27.836Z,53.43
2022-10-05T03:16:39.397Z,52.34
2022-10-05T03:19:54.267Z,53.33
2022-10-05T03:22:59.471Z,53.04
2022-10-05T03:26:07.221Z,52.73
2022-10-05T03:29:18.953Z,52.92
2022-10-05T03:32:26.655Z,53.04
2022-10-05T03:35:31.951Z,53.64
2022-10-05T03:38:40.360Z,53.13
2022-10-05T03:41:46.711Z,53.27
2022-10-05T03:44:53.884Z,52.96
2022-10-05T03:48:01.974Z,52.77
2022-10-05T03:51:09.134Z,52.65
2022-10-05T03:54:17.667Z,52.87
2022-10-05T03:57:22.601Z,52.74
2022-10-05T04:00:25.767Z,53.24
2022-10-05T04:03:32.108Z,53.10
2022-10-05T04:06:38.020Z,53.19
2022-10-05T04:09:42.080Z,53.20
2022-10-05T04:12:47.251Z,53.00
2022-10-05T04:15:55.125Z,53.06
2022-10-05T04:19:00.690Z,52.57
2022-10-05T04:22:07.440Z,53.25
2022-10-05T04:25:16.301Z,52.91
2022-10-05T04:28:27.051Z,52.36
2022-10-05T04:31:43.004Z,52.22
2022-10-05T04:34:55.369Z,52.84
2022-10-05T04:38:04.069Z,52.72
2022-10-05T04:41:15.961Z,53.19
2022-10-05T04:44:28.860Z,52.30
2022-10-05T04:47:52.329Z,52.71
2022-10-05T04:51:01.408Z,52.83
2022-10-05T04:54:12.668Z,53.34
2022-10-05T04:57:19.031Z,52.73
2022-10-05T05:00:23.921Z,53.62
2022-10-05T05:03:41.558Z,52.14
2022-10-05T05:06:48.254Z,52.74
2022-10-05T05:10:01.630Z,52.94
2022-10-05T05:13:12.483Z,52.50
2022-10-05T05:16:20.859Z,52.25
2022-10-05T05:19:29.740Z,52.66
2022-10-05T05:22:36.740Z,52.46
2022-10-05T05:25:47.260Z,52.83
2022-10-05T05:28:52.283Z,53.31
2022-10-05T05:32:00.474Z,52.50
2022-10-05T05:35:27.391Z,52.18
2022-10-05T05:38:34.077Z,52.54
2022-10-05T05:41:39.055Z,51.57
2022-10-05T05:44:43.322Z,52.91
2022-10-05T05:47:52.051Z,52.63
2022-10-05T05:50:58.372Z,51.64
2022-10-05T05:54:06.827Z,52.28
2022-10-05T05:57:14.715Z,51.94
2022-10-05T06:00:18.157Z,51.13
2022-10-05T06:03:24.302Z,51.31
2022-10-05T06:06:28.506Z,50.46
2022-10-05T06:09:36.033Z,50.34
2022-10-05T06:12:43.370Z,50.06
2022-10-05T06:15:50.371Z,50.32
2022-10-05T06:18:55.898Z,51.20
2022-10-05T06:22:02.931Z,50.79
2022-10-05T06:25:13.237Z,50.67
2022-10-05T06:28:17.358Z,50.27
2022-10-05T06:31:25.566Z,50.08
2022-10-05T06:34:39.223Z,49.85
2022-10-05T06:37:56.875Z,49.14
2022-10-05T06:41:05.628Z,49.50
2022-10-05T06:44:13.760Z,48.99
2022-10-05T06:47:19.318Z,49.20
2022-10-05T06:50:28.122Z,49.11
2022-10-05T06:53:34.987Z,48.97
2022-10-05T06:56:42.365Z,49.24
2022-10-05T06:59:51.135Z,49.69
2022-10-05T07:02:58.541Z,48.95
2022-10-05T07:06:07.459Z,49.47
2022-10-05T07:09:18.823Z,49.04
2022-10-05T07:12:36.956Z,48.81
2022-10-05T07:15:46.219Z,49.11
2022-10-05T07:18:52.692Z,48.71
2022-10-05T07:22:04.923Z,48.74
2022-10-05T07:25:11.676Z,48.78
2022-10-05T07:28:18.993Z,48.15
2022-10-05T07:31:29.509Z,47.90
2022-10-05T07:34:37.332Z,48.64
2022-10-05T07:37:57.313Z,47.93
2022-10-05T07:41:03.235Z,48.08
2022-10-05T07:44:13.066Z,47.70
2022-10-05T07:47:21.899Z,47.87
2022-10-05T07:50:27.505Z,47.92
2022-10-05T07:53:33.997Z,48.21
2022-10-05T07:56:40.967Z,48.18
2022-10-05T07:59:45.702Z,48.12
2022-10-05T08:02:52.181Z,47.96
2022-10-05T08:05:55.910Z,48.08
2022-10-05T08:09:03.063Z,47.75
2022-10-05T08:12:10.814Z,48.10
2022-10-05T08:15:15.964Z,47.81
2022-10-05T08:18:22.965Z,47.43
2022-10-05T08:21:28.758Z,47.53
2022-10-05T08:24:36.896Z,47.50
2022-10-05T08:27:44.575Z,47.73
2022-10-05T08:30:54.648Z,47.20
2022-10-05T08:34:20.314Z,47.23
2022-10-05T08:37:27.466Z,47.10
2022-10-05T08:40:51.721Z,46.88
2022-10-05T08:44:16.230Z,47.27
2022-10-05T08:47:47.192Z,46.75
2022-10-05T08:51:16.846Z,46.50
2022-10-05T08:54:27.411Z,47.02
2022-10-05T08:57:51.072Z,46.81
2022-10-05T09:00:57.981Z,46.83
2022-10-05T09:04:28.227Z,46.89
2022-10-05T09:07:57.349Z,46.60
2022-10-05T09:11:04.096Z,46.60
2022-10-05T09:14:18.541Z,46.55
2022-10-05T09:17:35.913Z,46.74
2022-10-05T09:20:47.867Z,47.22
2022-10-05T09:23:57.191Z,47.00
2022-10-05T09:27:04.934Z,47.63
2022-10-05T09:30:16.778Z,48.10
2022-10-05T09:33:43.902Z,48.51
2022-10-05T09:37:17.229Z,49.90
2022-10-05T09:40:40.850Z,48.46
2022-10-05T09:44:01.470Z,50.52
2022-10-05T09:47:14.871Z,50.44
2022-10-05T09:50:35.589Z,50.28
2022-10-05T09:53:53.520Z,49.39
2022-10-05T09:57:12.650Z,49.16
2022-10-05T10:00:24.181Z,49.32
2022-10-05T10:03:43.441Z,48.77
2022-10-05T10:07:00.332Z,49.08
2022-10-05T10:10:20.913Z,48.83
2022-10-05T10:13:32.670Z,48.80
2022-10-05T10:17:02.409Z,48.92
2022-10-05T10:20:27.354Z,50.66
2022-10-05T10:23:39.279Z,49.20
2022-10-05T10:26:56.315Z,49.07
2022-10-05T10:30:19.010Z,48.38
2022-10-05T10:33:34.517Z,49.02
2022-10-05T10:36:47.628Z,48.77
2022-10-05T10:40:03.490Z,49.08
2022-10-05T10:43:26.557Z,49.17
2022-10-05T10:46:37.918Z,48.17
2022-10-05T10:49:51.164Z,47.60
2022-10-05T10:53:03.002Z,48.14
2022-10-05T10:56:20.731Z,48.48
2022-10-05T10:59:40.266Z,46.58
2022-10-05T11:02:58.324Z,48.70
2022-10-05T11:06:21.856Z,48.26
2022-10-05T11:09:46.758Z,47.25
2022-10-05T11:13:02.888Z,47.72
2022-10-05T11:16:19.799Z,47.80
2022-10-05T11:20:04.048Z,47.83
2022-10-05T11:23:20.760Z,47.65
2022-10-05T11:26:33.868Z,47.50
2022-10-05T11:29:59.267Z,47.00
2022-10-05T11:33:13.576Z,46.18
2022-10-05T11:36:35.006Z,47.08
2022-10-05T11:39:44.108Z,45.65
2022-10-05T11:43:01.572Z,45.84
2022-10-05T11:46:08.327Z,46.64
2022-10-05T11:49:25.948Z,46.30
2022-10-05T11:52:31.916Z,45.81
2022-10-05T11:55:38.789Z,47.62
2022-10-05T11:58:44.751Z,46.91
2022-10-05T12:01:53.611Z,48.14
2022-10-05T12:05:02.597Z,46.38
2022-10-05T12:08:16.081Z,47.65
2022-10-05T12:11:37.254Z,46.72
2022-10-05T12:14:43.965Z,48.73
2022-10-05T12:17:51.159Z,48.34
2022-10-05T12:20:57.296Z,48.15
2022-10-05T12:24:01.431Z,48.23
2022-10-05T12:27:09.018Z,47.95
2022-10-05T12:30:14.735Z,47.37
2022-10-05T12:33:20.785Z,47.28
2022-10-05T12:36:46.242Z,47.61
2022-10-05T12:39:56.786Z,47.18
2022-10-05T12:43:05.833Z,47.35
2022-10-05T12:46:17.053Z,48.12
2022-10-05T12:49:28.395Z,48.44
2022-10-05T12:52:46.994Z,48.50
2022-10-05T12:55:54.517Z,48.62
2022-10-05T12:59:04.300Z,48.04
2022-10-05T13:02:13.032Z,47.83
2022-10-05T13:05:21.122Z,47.08
2022-10-05T13:08:26.760Z,47.18
2022-10-05T13:11:35.434Z,46.59
2022-10-05T13:14:47.589Z,50.16
2022-10-05T13:17:55.794Z,49.25
2022-10-05T13:21:04.625Z,48.36
2022-10-05T13:24:13.440Z,48.04
2022-10-05T13:27:18.936Z,48.16
2022-10-05T13:30:23.225Z,48.77
2022-10-05T13:33:35.122Z,47.80
2022-10-05T13:36:43.445Z,48.38
2022-10-05T13:39:55.619Z,47.53
2022-10-05T13:43:02.819Z,47.66
2022-10-05T13:46:08.977Z,47.60
2022-10-05T13:49:20.154Z,47.38
2022-10-05T13:52:30.205Z,46.67
2022-10-05T13:55:41.183Z,46.00
2022-10-05T13:58:47.648Z,46.72
2022-10-05T14:01:55.815Z,47.20
2022-10-05T14:05:02.035Z,46.67
2022-10-05T14:08:17.094Z,46.21
2022-10-05T14:11:27.276Z,46.08
2022-10-05T14:14:32.312Z,46.82
2022-10-05T14:17:40.837Z,47.23
2022-10-05T14:20:57.795Z,46.79
2022-10-05T14:24:25.714Z,46.58
2022-10-05T14:27:49.172Z,46.14
2022-10-05T14:30:59.482Z,46.28
2022-10-05T14:34:20.977Z,46.29
2022-10-05T14:37:26.193Z,46.28
2022-10-05T14:40:31.307Z,46.70
2022-10-05T14:43:35.313Z,46.42
2022-10-05T14:46:41.730Z,47.02
2022-10-05T14:49:50.725Z,46.68
2022-10-05T14:53:16.637Z,46.54
2022-10-05T14:56:40.644Z,46.67
2022-10-05T14:59:51.355Z,46.48
2022-10-05T15:03:10.236Z,46.62
2022-10-05T15:06:20.949Z,45.97
2022-10-05T15:09:47.072Z,46.44
2022-10-05T15:12:49.760Z,45.37
2022-10-05T15:15:57.637Z,46.02
2022-10-05T15:19:04.509Z,46.28
2022-10-05T15:22:19.235Z,46.48
2022-10-05T15:25:28.885Z,47.01
2022-10-05T15:28:35.459Z,46.08
2022-10-05T15:31:41.844Z,45.99
2022-10-05T15:34:49.959Z,46.04
2022-10-05T15:37:55.905Z,46.41
2022-10-05T15:41:03.016Z,46.37
2022-10-05T15:44:15.159Z,46.64
2022-10-05T15:47:21.732Z,46.42
2022-10-05T15:50:27.042Z,46.70
2022-10-05T15:53:36.088Z,46.82
2022-10-05T15:56:42.641Z,47.27
2022-10-05T15:59:50.891Z,47.38
2022-10-05T16:02:58.088Z,47.26
2022-10-05T16:06:20.568Z,47.65
2022-10-05T16:09:36.827Z,49.46
2022-10-05T16:12:45.531Z,48.88
2022-10-05T16:15:51.025Z,49.05
2022-10-05T16:19:01.120Z,49.36
2022-10-05T16:22:15.285Z,50.90
2022-10-05T16:25:22.447Z,50.72
2022-10-05T16:28:36.782Z,50.28
2022-10-05T16:31:44.156Z,50.23
2022-10-05T16:35:02.656Z,49.96
2022-10-05T16:38:10.722Z,49.69
2022-10-05T16:41:22.580Z,49.83
2022-10-05T16:44:32.692Z,49.53
2022-10-05T16:47:42.099Z,49.66
2022-10-05T16:50:51.190Z,49.90
2022-10-05T16:54:00.395Z,49.54
2022-10-05T16:57:06.209Z,49.29
2022-10-05T17:00:23.627Z,49.76
2022-10-05T17:03:41.021Z,49.35
2022-10-05T17:06:57.142Z,50.04
2022-10-05T17:10:28.550Z,50.27
2022-10-05T17:13:43.704Z,49.85
2022-10-05T17:16:55.988Z,50.61
2022-10-05T17:20:12.064Z,50.73
2022-10-05T17:23:35.768Z,50.61
2022-10-05T17:26:55.001Z,50.50
2022-10-05T17:30:21.372Z,51.09
2022-10-05T17:33:30.269Z,51.03
2022-10-05T17:36:39.338Z,51.08
2022-10-05T17:39:49.982Z,51.50
2022-10-05T17:43:01.170Z,52.29
2022-10-05T17:46:07.086Z,52.34
2022-10-05T17:49:39.440Z,51.96
2022-10-05T17:53:02.674Z,52.56
2022-10-05T17:56:07.877Z,52.74
2022-10-05T18:02:45.328Z,52.00
2022-10-05T18:06:09.153Z,52.12
2022-10-05T18:09:35.605Z,51.83
2022-10-05T18:12:49.089Z,51.36
2022-10-05T18:16:09.808Z,53.01
2022-10-05T18:19:17.384Z,54.31
2022-10-05T18:22:31.456Z,53.34
2022-10-05T18:25:38.749Z,53.68
2022-10-05T18:29:01.685Z,54.56
2022-10-05T18:32:13.135Z,54.45
2022-10-05T18:35:20.642Z,54.25
2022-10-05T18:38:31.540Z,54.07
2022-10-05T18:41:42.650Z,56.00
2022-10-05T18:44:47.334Z,55.13
2022-10-05T18:47:57.525Z,54.70
2022-10-05T18:51:05.318Z,53.64
2022-10-05T18:54:18.261Z,55.44
2022-10-05T18:57:42.903Z,54.10
2022-10-05T19:01:00.535Z,53.61
2022-10-05T19:04:20.086Z,53.28
2022-10-05T19:07:39.425Z,52.58
2022-10-05T19:10:47.241Z,52.05
2022-10-05T19:13:58.269Z,52.53
2022-10-05T19:17:20.678Z,52.60
2022-10-05T19:20:30.183Z,52.51
2022-10-05T19:23:51.992Z,51.76
2022-10-05T19:27:02.434Z,51.59
2022-10-05T19:30:19.497Z,51.47
2022-10-05T19:33:39.923Z,51.34
2022-10-05T19:36:55.567Z,51.05
2022-10-05T19:40:07.190Z,51.19
2022-10-05T19:43:19.177Z,50.90
2022-10-05T19:46:27.422Z,50.88
2022-10-05T19:49:38.010Z,50.36
2022-10-05T19:52:48.969Z,50.78
2022-10-05T19:55:53.140Z,50.70
2022-10-05T20:02:17.241Z,51.30
2022-10-05T20:05:20.476Z,51.41
2022-10-05T20:08:27.022Z,51.57
2022-10-05T20:11:31.531Z,51.51
2022-10-05T20:14:59.217Z,51.38
2022-10-05T20:18:49.918Z,51.43
2022-10-05T20:21:54.137Z,51.41
2022-10-05T20:25:00.135Z,51.36
2022-10-05T20:28:03.038Z,50.95
2022-10-05T20:31:07.003Z,50.89
2022-10-05T20:34:09.717Z,50.51
2022-10-05T20:37:13.440Z,50.46
2022-10-05T20:40:19.827Z,50.30
2022-10-05T20:43:22.953Z,51.40
2022-10-05T20:46:25.686Z,51.68
2022-10-05T20:49:28.624Z,51.93
2022-10-05T20:52:31.687Z,51.75
2022-10-05T20:55:36.417Z,51.70
2022-10-05T20:58:44.394Z,52.17
2022-10-05T21:01:48.140Z,52.04
2022-10-05T21:04:50.857Z,51.51
2022-10-05T21:07:53.609Z,52.06
2022-10-05T21:10:58.062Z,52.18
2022-10-05T21:14:05.438Z,51.94
2022-10-05T21:17:09.620Z,52.22
2022-10-05T21:20:12.366Z,52.16
2022-10-05T21:23:15.016Z,51.93
2022-10-05T21:26:19.084Z,51.86
2022-10-05T21:29:22.182Z,51.81
2022-10-05T21:32:24.978Z,51.58
2022-10-05T21:35:27.676Z,50.47
2022-10-05T21:38:30.986Z,50.30
2022-10-05T21:41:35.143Z,50.25
2022-10-05T21:44:37.813Z,50.12
2022-10-05T21:47:40.536Z,50.25
2022-10-05T21:50:43.436Z,49.80
2022-10-05T21:53:48.780Z,49.82
2022-10-05T21:56:53.673Z,49.95
2022-10-05T21:59:56.397Z,49.87
2022-10-05T22:02:59.097Z,49.71
2022-10-05T22:06:03.737Z,49.89
2022-10-05T22:09:06.516Z,49.73
2022-10-05T22:12:10.618Z,49.81
2022-10-05T22:15:13.417Z,49.62
2022-10-05T22:18:17.571Z,49.46
2022-10-05T22:21:21.124Z,49.64
2022-10-05T22:24:23.788Z,49.49
2022-10-05T22:27:28.989Z,49.73
2022-10-05T22:30:31.772Z,49.42
2022-10-05T22:33:34.908Z,49.59
2022-10-05T22:36:37.709Z,49.53
2022-10-05T22:39:40.559Z,49.49
2022-10-05T22:42:44.619Z,49.30
2022-10-05T22:45:47.292Z,49.58
2022-10-05T22:48:50.065Z,49.46
2022-10-05T22:51:52.745Z,49.54
2022-10-05T22:54:55.439Z,49.57
2022-10-05T22:57:59.488Z,49.23
2022-10-05T23:01:03.760Z,49.44
2022-10-05T23:04:08.770Z,49.16
2022-10-05T23:07:11.493Z,49.16
2022-10-05T23:10:15.677Z,49.35
2022-10-05T23:13:19.780Z,49.25
2022-10-05T23:16:23.413Z,49.33
2022-10-05T23:19:26.125Z,49.33
2022-10-05T23:22:28.886Z,49.58
2022-10-05T23:25:31.576Z,49.75
2022-10-05T23:28:35.751Z,49.59
2022-10-05T23:31:38.574Z,49.59
2022-10-05T23:34:41.257Z,49.67
2022-10-05T23:37:45.084Z,49.18
2022-10-05T23:40:48.470Z,49.24
2022-10-05T23:43:54.691Z,49.42
2022-10-05T23:46:57.352Z,49.47
2022-10-05T23:50:00.650Z,49.32
2022-10-05T23:53:03.305Z,49.27
2022-10-05T23:56:06.175Z,50.11
2022-10-05T23:59:10.301Z,49.92
